createdAt,value
2019-05-18T00:00:22.386Z,98.12
2019-05-18T00:02:27.973Z,94.87
2019-05-18T00:04:34.502Z,89.55
2019-05-18T00:06:40.018Z,84.28
2019-05-18T00:08:45.521Z,88.20
2019-05-18T00:10:51.106Z,87.62
2019-05-18T00:12:56.722Z,90.12
2019-05-18T00:15:02.278Z,96.12
2019-05-18T00:17:17.316Z,99.65
2019-05-18T00:19:15.069Z,93.65
2019-05-18T00:21:20.664Z,92.40
2019-05-18T00:23:26.188Z,99.25
2019-05-18T00:25:31.736Z,84.62
2019-05-18T00:27:37.323Z,85.72
2019-05-18T00:29:47.988Z,86.78
2019-05-18T00:31:53.533Z,85.83
2019-05-18T00:33:59.145Z,82.33
2019-05-18T00:36:05.009Z,84.10
2019-05-18T00:38:10.663Z,92.10
2019-05-18T00:40:16.339Z,82.72
2019-05-18T00:42:21.854Z,91.15
2019-05-18T00:44:27.401Z,88.70
2019-05-18T00:46:32.931Z,76.77
2019-05-18T00:48:38.509Z,91.42
2019-05-18T00:50:44.166Z,99.25
2019-05-18T00:52:49.703Z,88.80
2019-05-18T00:54:55.254Z,93.37
2019-05-18T00:57:00.881Z,88.47
2019-05-18T00:59:06.432Z,83.65
2019-05-18T01:01:12.015Z,87.65
2019-05-18T01:03:17.596Z,82.90
2019-05-18T01:05:23.110Z,89.28
2019-05-18T01:07:28.625Z,90.15
2019-05-18T01:09:34.206Z,107.32
2019-05-18T01:11:39.725Z,107.32
2019-05-18T01:13:45.268Z,101.65
2019-05-18T01:15:50.869Z,113.62
2019-05-18T01:17:57.744Z,113.70
2019-05-18T01:20:04.977Z,108.67
2019-05-18T01:22:10.545Z,98.27
2019-05-18T01:24:16.077Z,104.72
2019-05-18T01:26:21.665Z,110.92
2019-05-18T01:28:27.240Z,100.65
2019-05-18T01:30:32.768Z,101.95
2019-05-18T01:32:38.378Z,96.75
2019-05-18T01:34:43.920Z,90.75
2019-05-18T01:36:49.460Z,101.62
2019-05-18T01:38:54.996Z,89.95
2019-05-18T01:41:00.620Z,97.02
2019-05-18T01:43:06.148Z,98.40
2019-05-18T01:45:16.789Z,98.42
2019-05-18T01:47:19.363Z,97.20
2019-05-18T01:49:25.941Z,91.45
2019-05-18T01:51:31.487Z,94.90
2019-05-18T01:53:38.106Z,91.63
2019-05-18T01:55:43.722Z,192.72
2019-05-18T01:57:51.269Z,102.60
2019-05-18T01:59:56.846Z,104.38
2019-05-18T02:02:02.460Z,80.28
2019-05-18T02:04:08.059Z,92.40
2019-05-18T02:06:13.678Z,96.80
2019-05-18T02:08:20.277Z,84.37
2019-05-18T02:10:25.950Z,101.70
2019-05-18T02:12:31.582Z,98.82
2019-05-18T02:14:37.094Z,102.25
2019-05-18T02:16:42.713Z,98.72
2019-05-18T02:18:48.286Z,99.00
2019-05-18T02:20:53.853Z,99.67
2019-05-18T02:22:59.379Z,84.62
2019-05-18T02:25:08.288Z,99.50
2019-05-18T02:27:13.802Z,86.63
2019-05-18T02:29:19.341Z,92.82
2019-05-18T02:31:24.961Z,92.88
2019-05-18T02:33:30.490Z,82.75
2019-05-18T02:35:36.039Z,93.95
2019-05-18T02:37:41.745Z,100.62
2019-05-18T02:39:48.965Z,94.92
2019-05-18T02:41:54.565Z,102.10
2019-05-18T02:44:00.110Z,91.80
2019-05-18T02:46:05.624Z,92.37
2019-05-18T02:48:11.406Z,94.32
2019-05-18T02:50:18.165Z,94.83
2019-05-18T02:52:23.696Z,80.00
2019-05-18T02:54:29.262Z,82.05
2019-05-18T02:56:35.156Z,76.28
2019-05-18T02:58:40.702Z,76.75
2019-05-18T03:00:46.702Z,68.80
2019-05-18T03:02:53.393Z,68.35
2019-05-18T03:04:58.943Z,70.78
2019-05-18T03:07:04.659Z,70.08
2019-05-18T03:09:10.310Z,63.30
2019-05-18T03:11:15.923Z,73.72
2019-05-18T03:13:21.746Z,81.65
2019-05-18T03:15:27.415Z,87.55
2019-05-18T03:17:32.946Z,88.05
2019-05-18T03:19:38.578Z,79.80
2019-05-18T03:21:44.900Z,76.00
2019-05-18T03:23:50.416Z,77.15
2019-05-18T03:25:55.988Z,75.62
2019-05-18T03:28:01.529Z,74.50
2019-05-18T03:30:10.739Z,69.40
2019-05-18T03:32:16.341Z,67.70
2019-05-18T03:34:21.918Z,75.32
2019-05-18T03:36:27.423Z,67.03
2019-05-18T03:38:32.971Z,66.82
2019-05-18T03:40:38.549Z,69.42
2019-05-18T03:42:44.022Z,70.05
2019-05-18T03:44:49.593Z,75.10
2019-05-18T03:46:55.152Z,69.00
2019-05-18T03:49:00.753Z,64.47
2019-05-18T03:51:06.876Z,81.12
2019-05-18T03:53:12.405Z,85.50
2019-05-18T03:55:17.966Z,79.07
2019-05-18T03:57:23.528Z,87.72
2019-05-18T03:59:29.062Z,92.95
2019-05-18T04:01:34.591Z,96.75
2019-05-18T04:03:40.132Z,75.20
2019-05-18T04:05:45.665Z,69.87
2019-05-18T04:07:51.228Z,70.52
2019-05-18T04:09:56.725Z,72.62
2019-05-18T04:12:02.339Z,75.52
2019-05-18T04:14:08.840Z,77.53
2019-05-18T04:16:14.726Z,70.80
2019-05-18T04:18:20.298Z,76.20
2019-05-18T04:20:25.903Z,75.95
2019-05-18T04:22:31.430Z,76.02
2019-05-18T04:24:37.211Z,69.20
2019-05-18T04:26:42.721Z,71.12
2019-05-18T04:28:48.272Z,73.20
2019-05-18T04:30:53.801Z,76.12
2019-05-18T04:32:59.394Z,71.50
2019-05-18T04:35:07.863Z,75.05
2019-05-18T04:37:13.437Z,72.95
2019-05-18T04:39:18.944Z,71.65
2019-05-18T04:41:24.481Z,76.85
2019-05-18T04:43:30.007Z,72.05
2019-05-18T04:45:36.507Z,74.58
2019-05-18T04:47:42.064Z,77.58
2019-05-18T04:50:03.850Z,79.82
2019-05-18T04:51:54.817Z,79.65
2019-05-18T04:54:00.366Z,61.60
2019-05-18T04:56:05.899Z,55.23
2019-05-18T04:58:11.468Z,56.05
2019-05-18T05:00:17.165Z,62.95
2019-05-18T05:02:22.772Z,57.75
2019-05-18T05:04:28.312Z,57.48
2019-05-18T05:06:33.925Z,52.95
2019-05-18T05:08:39.428Z,55.08
2019-05-18T05:10:44.985Z,50.75
2019-05-18T05:13:13.347Z,52.45
2019-05-18T05:15:19.049Z,51.25
2019-05-18T05:17:24.600Z,55.08
2019-05-18T05:19:30.150Z,52.95
2019-05-18T05:21:35.735Z,51.10
2019-05-18T05:23:41.261Z,48.48
2019-05-18T05:25:46.787Z,61.65
2019-05-18T05:27:52.306Z,62.80
2019-05-18T05:29:57.820Z,53.33
2019-05-18T05:32:03.364Z,59.98
2019-05-18T05:34:08.883Z,66.12
2019-05-18T05:36:14.393Z,65.12
2019-05-18T05:38:19.949Z,60.63
2019-05-18T05:40:25.491Z,59.83
2019-05-18T05:42:31.209Z,54.40
2019-05-18T05:44:36.736Z,61.45
2019-05-18T05:46:42.248Z,56.15
2019-05-18T05:48:47.769Z,56.28
2019-05-18T05:50:53.405Z,50.88
2019-05-18T05:52:59.078Z,48.87
2019-05-18T05:55:08.410Z,53.83
2019-05-18T05:57:13.951Z,52.38
2019-05-18T05:59:19.483Z,59.13
2019-05-18T06:01:25.016Z,56.77
2019-05-18T06:03:30.547Z,48.48
2019-05-18T06:05:37.037Z,48.45
2019-05-18T06:07:42.563Z,52.17
2019-05-18T06:09:48.085Z,55.63
2019-05-18T06:11:53.616Z,43.50
2019-05-18T06:13:59.141Z,46.83
2019-05-18T06:16:04.905Z,45.90
2019-05-18T06:18:10.421Z,41.48
2019-05-18T06:20:16.009Z,41.10
2019-05-18T06:22:21.646Z,38.15
2019-05-18T06:24:27.175Z,35.13
2019-05-18T06:26:32.681Z,36.00
2019-05-18T06:28:38.291Z,39.35
2019-05-18T06:30:43.811Z,36.63
2019-05-18T06:32:49.350Z,35.88
2019-05-18T06:34:54.909Z,31.70
2019-05-18T06:37:00.638Z,35.48
2019-05-18T06:39:07.601Z,28.95
2019-05-18T06:41:13.168Z,33.23
2019-05-18T06:43:18.629Z,31.60
2019-05-18T06:45:24.227Z,28.52
2019-05-18T06:47:29.754Z,30.92
2019-05-18T06:49:35.278Z,26.68
2019-05-18T06:51:40.815Z,28.42
2019-05-18T06:53:46.342Z,23.92
2019-05-18T06:55:53.869Z,21.75
2019-05-18T06:58:00.174Z,22.17
2019-05-18T07:00:14.597Z,20.12
2019-05-18T07:02:20.185Z,20.97
2019-05-18T07:04:25.706Z,22.70
2019-05-18T07:06:31.245Z,19.73
2019-05-18T07:08:36.760Z,17.85
2019-05-18T07:10:42.355Z,13.58
2019-05-18T07:12:47.978Z,15.80
2019-05-18T07:14:53.504Z,19.30
2019-05-18T07:16:59.088Z,18.15
2019-05-18T07:19:04.680Z,18.07
2019-05-18T07:21:21.365Z,17.40
2019-05-18T07:23:17.438Z,16.12
2019-05-18T07:25:23.020Z,20.20
2019-05-18T07:27:28.595Z,17.35
2019-05-18T07:29:34.109Z,16.73
2019-05-18T07:31:39.717Z,15.00
2019-05-18T07:33:45.233Z,16.87
2019-05-18T07:35:50.829Z,15.70
2019-05-18T07:37:56.366Z,13.18
2019-05-18T07:40:02.227Z,16.82
2019-05-18T07:42:07.979Z,13.65
2019-05-18T07:44:13.474Z,17.27
2019-05-18T07:46:19.076Z,12.43
2019-05-18T07:48:24.588Z,14.10
2019-05-18T07:50:30.179Z,13.35
2019-05-18T07:52:35.764Z,8.43
2019-05-18T07:54:41.272Z,15.10
2019-05-18T07:56:46.783Z,12.40
2019-05-18T07:58:52.352Z,12.37
2019-05-18T08:00:57.863Z,17.95
2019-05-18T08:03:03.444Z,11.85
2019-05-18T08:05:10.481Z,12.50
2019-05-18T08:07:16.065Z,12.18
2019-05-18T08:09:21.580Z,15.18
2019-05-18T08:11:27.461Z,9.70
2019-05-18T08:13:32.982Z,13.03
2019-05-18T08:15:39.711Z,11.60
2019-05-18T08:17:45.290Z,10.68
2019-05-18T08:19:50.803Z,9.95
2019-05-18T08:21:56.334Z,9.80
2019-05-18T08:24:02.023Z,11.08
2019-05-18T08:26:07.577Z,9.70
2019-05-18T08:28:13.108Z,9.95
2019-05-18T08:30:18.876Z,13.83
2019-05-18T08:32:24.440Z,9.98
2019-05-18T08:34:29.966Z,8.95
2019-05-18T08:36:35.472Z,11.10
2019-05-18T08:38:41.010Z,9.80
2019-05-18T08:40:46.512Z,9.43
2019-05-18T08:42:52.089Z,12.80
2019-05-18T08:44:57.613Z,13.15
2019-05-18T08:47:04.254Z,15.43
2019-05-18T08:49:09.890Z,10.68
2019-05-18T08:51:15.416Z,11.28
2019-05-18T08:53:20.994Z,12.15
2019-05-18T08:55:26.508Z,13.45
2019-05-18T08:57:32.094Z,11.85
2019-05-18T08:59:40.007Z,12.50
2019-05-18T09:01:46.729Z,11.88
2019-05-18T09:03:52.348Z,17.23
2019-05-18T09:05:57.873Z,15.38
2019-05-18T09:08:03.457Z,14.70
2019-05-18T09:10:09.177Z,11.70
2019-05-18T09:12:14.703Z,14.25
2019-05-18T09:14:20.238Z,13.40
2019-05-18T09:16:25.745Z,10.98
2019-05-18T09:18:31.290Z,13.20
2019-05-18T09:20:36.831Z,11.80
2019-05-18T09:22:42.377Z,10.90
2019-05-18T09:24:47.908Z,11.53
2019-05-18T09:26:53.430Z,10.13
2019-05-18T09:28:58.992Z,8.65
2019-05-18T09:31:04.583Z,9.93
2019-05-18T09:33:10.094Z,11.38
2019-05-18T09:35:15.998Z,12.58
2019-05-18T09:37:21.584Z,8.65
2019-05-18T09:39:27.253Z,12.43
2019-05-18T09:41:32.831Z,11.48
2019-05-18T09:43:38.379Z,11.75
2019-05-18T09:45:43.889Z,8.65
2019-05-18T09:47:49.675Z,10.13
2019-05-18T09:49:55.210Z,9.78
2019-05-18T09:52:00.782Z,11.05
2019-05-18T09:54:06.533Z,10.80
2019-05-18T09:56:13.284Z,10.90
2019-05-18T09:58:18.824Z,10.53
2019-05-18T10:00:26.227Z,9.63
2019-05-18T10:02:31.908Z,10.00
2019-05-18T10:04:39.384Z,9.60
2019-05-18T10:06:44.911Z,9.23
2019-05-18T10:08:50.442Z,8.38
2019-05-18T10:10:56.096Z,8.65
2019-05-18T10:13:01.837Z,11.28
2019-05-18T10:15:08.989Z,10.85
2019-05-18T10:17:14.608Z,11.80
2019-05-18T10:19:20.582Z,8.45
2019-05-18T10:21:26.126Z,10.30
2019-05-18T10:23:31.693Z,10.40
2019-05-18T10:25:37.208Z,10.10
2019-05-18T10:27:42.795Z,11.10
2019-05-18T10:29:49.368Z,11.75
2019-05-18T10:31:54.888Z,12.15
2019-05-18T10:34:00.504Z,10.80
2019-05-18T10:36:06.041Z,10.05
2019-05-18T10:38:11.626Z,9.10
2019-05-18T10:40:17.796Z,7.95
2019-05-18T10:42:23.317Z,10.53
2019-05-18T10:44:28.820Z,10.35
2019-05-18T10:46:35.403Z,10.15
2019-05-18T10:48:40.896Z,9.50
2019-05-18T10:50:46.546Z,13.68
2019-05-18T10:52:52.053Z,8.53
2019-05-18T10:54:57.549Z,8.08
2019-05-18T10:57:03.085Z,9.98
2019-05-18T10:59:08.664Z,11.55
2019-05-18T11:01:14.213Z,10.65
2019-05-18T11:03:19.804Z,10.48
2019-05-18T11:05:25.318Z,8.95
2019-05-18T11:07:30.975Z,7.55
2019-05-18T11:09:36.565Z,8.35
2019-05-18T11:11:42.069Z,8.75
2019-05-18T11:13:47.746Z,9.73
2019-05-18T11:15:53.329Z,5.42
2019-05-18T11:17:58.840Z,8.35
2019-05-18T11:20:07.789Z,7.90
2019-05-18T11:22:23.557Z,6.30
2019-05-18T11:24:29.084Z,6.12
2019-05-18T11:26:34.589Z,6.55
2019-05-18T11:28:40.104Z,7.42
2019-05-18T11:30:45.621Z,8.60
2019-05-18T11:32:51.270Z,8.38
2019-05-18T11:34:56.820Z,5.92
2019-05-18T11:37:03.191Z,7.47
2019-05-18T11:39:16.250Z,9.88
2019-05-18T11:41:22.029Z,5.50
2019-05-18T11:43:28.596Z,7.10
2019-05-18T11:45:40.703Z,5.87
2019-05-18T11:47:46.294Z,7.53
2019-05-18T11:49:51.948Z,8.40
2019-05-18T11:51:57.451Z,7.00
2019-05-18T11:54:02.978Z,6.75
2019-05-18T11:56:08.572Z,4.90
2019-05-18T11:58:14.084Z,4.75
2019-05-18T12:00:24.980Z,4.90
2019-05-18T12:02:30.497Z,5.92
2019-05-18T12:04:36.010Z,4.95
2019-05-18T12:06:41.534Z,7.90
2019-05-18T12:08:47.213Z,6.00
2019-05-18T12:11:05.166Z,6.85
2019-05-18T12:13:10.749Z,8.38
2019-05-18T12:15:16.817Z,4.55
2019-05-18T12:17:22.400Z,6.95
2019-05-18T12:19:27.902Z,5.40
2019-05-18T12:21:33.504Z,5.37
2019-05-18T12:23:45.293Z,5.70
2019-05-18T12:25:58.813Z,8.95
2019-05-18T12:28:09.377Z,6.05
2019-05-18T12:30:16.938Z,5.17
2019-05-18T12:32:22.455Z,4.83
2019-05-18T12:34:28.051Z,5.33
2019-05-18T12:36:39.475Z,8.53
2019-05-18T12:38:48.312Z,6.78
2019-05-18T12:40:54.535Z,6.62
2019-05-18T12:43:00.073Z,5.42
2019-05-18T12:45:07.481Z,6.67
2019-05-18T12:47:14.420Z,9.15
2019-05-18T12:49:20.301Z,6.65
2019-05-18T12:51:25.898Z,4.78
2019-05-18T12:53:31.423Z,8.28
2019-05-18T12:55:36.925Z,7.03
2019-05-18T12:57:42.505Z,6.75
2019-05-18T12:59:48.097Z,9.40
2019-05-18T13:01:59.082Z,5.45
2019-05-18T13:04:04.765Z,7.45
2019-05-18T13:06:10.356Z,6.33
2019-05-18T13:08:15.857Z,11.75
2019-05-18T13:10:21.505Z,6.70
2019-05-18T13:12:27.035Z,7.50
2019-05-18T13:14:32.614Z,8.58
2019-05-18T13:16:38.708Z,6.17
2019-05-18T13:18:44.350Z,5.87
2019-05-18T13:20:51.400Z,8.93
2019-05-18T13:22:57.873Z,8.30
2019-05-18T13:25:04.530Z,5.08
2019-05-18T13:27:10.116Z,7.25
2019-05-18T13:29:15.696Z,7.70
2019-05-18T13:31:21.204Z,6.37
2019-05-18T13:33:26.727Z,6.67
2019-05-18T13:35:32.247Z,5.28
2019-05-18T13:37:37.804Z,5.12
2019-05-18T13:39:43.315Z,6.12
2019-05-18T13:41:48.816Z,8.10
2019-05-18T13:43:54.317Z,7.25
2019-05-18T13:45:59.838Z,4.35
2019-05-18T13:48:05.420Z,6.22
2019-05-18T13:50:12.605Z,4.83
2019-05-18T13:52:18.114Z,5.75
2019-05-18T13:54:23.632Z,5.95
2019-05-18T13:56:29.173Z,6.17
2019-05-18T13:58:34.719Z,4.58
2019-05-18T14:00:40.308Z,6.12
2019-05-18T14:02:45.828Z,4.90
2019-05-18T14:04:51.444Z,6.10
2019-05-18T14:06:56.968Z,5.60
2019-05-18T14:09:02.479Z,6.83
2019-05-18T14:11:08.101Z,12.30
2019-05-18T14:13:13.625Z,5.28
2019-05-18T14:15:22.583Z,6.50
2019-05-18T14:17:26.542Z,6.17
2019-05-18T14:19:32.146Z,7.33
2019-05-18T14:21:37.668Z,10.25
2019-05-18T14:23:43.201Z,9.60
2019-05-18T14:25:49.858Z,7.83
2019-05-18T14:27:55.386Z,5.90
2019-05-18T14:30:01.077Z,8.15
2019-05-18T14:32:10.835Z,10.65
2019-05-18T14:34:14.845Z,12.23
2019-05-18T14:36:20.383Z,7.90
2019-05-18T14:38:25.892Z,15.90
2019-05-18T14:40:31.575Z,11.25
2019-05-18T14:42:37.108Z,10.05
2019-05-18T14:44:42.704Z,11.95
2019-05-18T14:46:48.246Z,7.60
2019-05-18T14:48:53.817Z,6.80
2019-05-18T14:50:59.385Z,6.55
2019-05-18T14:53:04.981Z,8.80
2019-05-18T14:55:11.067Z,10.48
2019-05-18T14:57:16.756Z,12.80
2019-05-18T14:59:22.261Z,19.37
2019-05-18T15:01:27.817Z,7.78
2019-05-18T15:03:33.317Z,7.28
2019-05-18T15:05:39.004Z,24.52
2019-05-18T15:07:44.564Z,5.90
2019-05-18T15:09:50.065Z,7.17
2019-05-18T15:11:55.571Z,6.80
2019-05-18T15:14:01.120Z,8.23
2019-05-18T15:16:06.649Z,8.10
2019-05-18T15:18:12.322Z,7.20
2019-05-18T15:20:18.056Z,8.23
2019-05-18T15:22:23.663Z,7.53
2019-05-18T15:24:29.235Z,9.23
2019-05-18T15:26:34.917Z,6.90
2019-05-18T15:28:40.444Z,8.55
2019-05-18T15:30:45.966Z,5.95
2019-05-18T15:32:51.483Z,6.08
2019-05-18T15:34:56.981Z,6.42
2019-05-18T15:37:02.658Z,9.78
2019-05-18T15:39:08.795Z,12.88
2019-05-18T15:41:14.370Z,10.43
2019-05-18T15:43:19.958Z,10.28
2019-05-18T15:45:25.712Z,11.05
2019-05-18T15:47:31.333Z,10.70
2019-05-18T15:49:36.945Z,17.15
2019-05-18T15:51:42.466Z,14.10
2019-05-18T15:53:48.153Z,14.07
2019-05-18T15:56:05.441Z,12.50
2019-05-18T15:58:01.927Z,13.00
2019-05-18T16:00:10.327Z,16.55
2019-05-18T16:02:16.065Z,15.20
2019-05-18T16:04:21.624Z,13.00
2019-05-18T16:06:27.133Z,19.55
2019-05-18T16:08:32.818Z,30.90
2019-05-18T16:10:40.292Z,14.45
2019-05-18T16:12:45.825Z,15.80
2019-05-18T16:14:51.420Z,14.93
2019-05-18T16:16:59.234Z,16.07
2019-05-18T16:19:04.952Z,18.35
2019-05-18T16:21:10.567Z,21.15
2019-05-18T16:23:16.650Z,19.48
2019-05-18T16:25:22.427Z,20.77
2019-05-18T16:27:29.066Z,22.30
2019-05-18T16:29:34.721Z,20.75
2019-05-18T16:31:40.357Z,27.10
2019-05-18T16:33:45.964Z,16.57
2019-05-18T16:35:51.661Z,16.60
2019-05-18T16:37:57.242Z,18.87
2019-05-18T16:40:02.918Z,16.02
2019-05-18T16:42:08.798Z,22.20
2019-05-18T16:44:14.344Z,13.65
2019-05-18T16:46:19.957Z,18.95
2019-05-18T16:48:27.210Z,19.10
2019-05-18T16:50:32.870Z,18.25
2019-05-18T16:52:38.469Z,24.27
2019-05-18T16:54:44.027Z,24.45
2019-05-18T16:56:49.560Z,26.82
2019-05-18T16:58:55.098Z,23.10
2019-05-18T17:01:00.781Z,24.37
2019-05-18T17:03:10.733Z,47.50
2019-05-18T17:05:16.594Z,94.28
2019-05-18T17:07:22.215Z,89.13
2019-05-18T17:09:29.386Z,41.42
2019-05-18T17:11:34.973Z,25.70
2019-05-18T17:13:40.551Z,27.55
2019-05-18T17:15:46.329Z,25.50
2019-05-18T17:17:52.029Z,29.98
2019-05-18T17:19:57.701Z,30.48
2019-05-18T17:22:04.802Z,37.17
2019-05-18T17:24:10.392Z,43.52
2019-05-18T17:26:19.037Z,30.30
2019-05-18T17:28:29.967Z,31.73
2019-05-18T17:30:43.797Z,34.20
2019-05-18T17:32:51.940Z,30.20
2019-05-18T17:35:02.633Z,32.45
2019-05-18T17:37:20.510Z,30.82
2019-05-18T17:39:31.347Z,28.05
2019-05-18T17:41:41.400Z,28.98
2019-05-18T17:43:47.245Z,28.45
2019-05-18T17:45:52.773Z,29.35
2019-05-18T17:47:58.390Z,26.45
2019-05-18T17:50:06.987Z,39.50
2019-05-18T17:52:12.635Z,42.25
2019-05-18T17:54:18.174Z,49.15
2019-05-18T17:56:23.871Z,51.70
2019-05-18T17:58:29.510Z,49.88
2019-05-18T18:00:35.250Z,47.78
2019-05-18T18:02:41.316Z,62.83
2019-05-18T18:04:56.558Z,132.47
2019-05-18T18:07:02.237Z,75.15
2019-05-18T18:09:08.693Z,71.30
2019-05-18T18:11:14.388Z,48.40
2019-05-18T18:13:19.982Z,42.65
2019-05-18T18:15:29.479Z,31.82
2019-05-18T18:17:35.150Z,32.10
2019-05-18T18:19:40.807Z,39.30
2019-05-18T18:21:46.433Z,36.23
2019-05-18T18:23:58.468Z,42.33
2019-05-18T18:26:04.093Z,39.83
2019-05-18T18:28:09.820Z,35.95
2019-05-18T18:30:16.280Z,39.42
2019-05-18T18:32:21.795Z,28.65
2019-05-18T18:34:27.427Z,22.87
2019-05-18T18:36:33.150Z,22.95
2019-05-18T18:38:38.692Z,21.77
2019-05-18T18:40:44.322Z,22.87
2019-05-18T18:43:06.558Z,27.60
2019-05-18T18:45:13.351Z,28.20
2019-05-18T18:47:18.891Z,31.90
2019-05-18T18:49:25.162Z,30.80
2019-05-18T18:51:30.700Z,33.15
2019-05-18T18:53:37.395Z,38.00
2019-05-18T18:55:42.980Z,38.63
2019-05-18T18:57:48.517Z,40.12
2019-05-18T18:59:56.811Z,47.43
2019-05-18T19:02:01.343Z,46.80
2019-05-18T19:04:07.052Z,53.00
2019-05-18T19:06:12.607Z,58.45
2019-05-18T19:08:18.218Z,51.92
2019-05-18T19:10:23.909Z,57.50
2019-05-18T19:12:29.453Z,89.65
2019-05-18T19:14:35.002Z,67.20
2019-05-18T19:16:40.559Z,64.72
2019-05-18T19:18:46.197Z,58.08
2019-05-18T19:20:51.809Z,55.10
2019-05-18T19:22:57.357Z,52.58
2019-05-18T19:25:03.093Z,48.00
2019-05-18T19:27:08.668Z,44.50
2019-05-18T19:29:41.326Z,41.83
2019-05-18T19:31:46.851Z,43.83
2019-05-18T19:33:52.386Z,43.35
2019-05-18T19:36:04.828Z,43.63
2019-05-18T19:38:10.525Z,45.05
2019-05-18T19:40:16.686Z,39.55
2019-05-18T19:42:22.264Z,37.70
2019-05-18T19:44:27.826Z,37.88
2019-05-18T19:46:33.440Z,36.98
2019-05-18T19:48:38.973Z,47.38
2019-05-18T19:50:44.746Z,46.18
2019-05-18T19:52:50.326Z,48.17
2019-05-18T19:54:56.004Z,45.05
2019-05-18T19:57:01.585Z,50.83
2019-05-18T19:59:07.177Z,54.85
2019-05-18T20:01:12.796Z,54.20
2019-05-18T20:03:24.412Z,49.58
2019-05-18T20:08:01.956Z,40.63
2019-05-18T20:10:14.052Z,39.55
2019-05-18T20:12:19.902Z,40.83
2019-05-18T20:14:37.652Z,41.13
2019-05-18T20:16:48.442Z,38.48
2019-05-18T20:18:53.992Z,37.40
2019-05-18T20:20:59.560Z,39.92
2019-05-18T20:23:43.425Z,42.58
2019-05-18T20:25:49.013Z,40.88
2019-05-18T20:27:54.517Z,41.37
2019-05-18T20:30:00.138Z,42.98
2019-05-18T20:32:05.813Z,47.58
2019-05-18T20:34:11.415Z,61.55
2019-05-18T20:36:16.946Z,145.40
2019-05-18T20:38:22.500Z,100.62
2019-05-18T20:40:28.032Z,94.55
2019-05-18T20:42:37.180Z,81.72
2019-05-18T20:44:40.836Z,73.70
2019-05-18T20:46:46.589Z,69.12
2019-05-18T20:48:52.124Z,53.68
2019-05-18T20:50:57.757Z,37.78
2019-05-18T20:53:22.826Z,34.05
2019-05-18T20:55:28.382Z,34.38
2019-05-18T20:57:33.940Z,31.15
2019-05-18T20:59:39.483Z,29.12
2019-05-18T21:01:45.012Z,30.60
2019-05-18T21:03:50.580Z,32.65
2019-05-18T21:06:09.821Z,29.75
2019-05-18T21:08:15.441Z,31.95
2019-05-18T21:10:21.098Z,28.87
2019-05-18T21:12:26.693Z,30.88
2019-05-18T21:14:44.523Z,40.25
2019-05-18T21:16:50.084Z,34.45
2019-05-18T21:18:55.624Z,35.70
2019-05-18T21:21:01.158Z,39.58
2019-05-18T21:23:12.514Z,43.55
2019-05-18T21:25:18.232Z,45.08
2019-05-18T21:27:23.778Z,48.38
2019-05-18T21:29:29.344Z,46.48
2019-05-18T21:31:34.873Z,47.65
2019-05-18T21:33:54.745Z,50.28
2019-05-18T21:36:00.319Z,44.83
2019-05-18T21:38:06.249Z,45.08
2019-05-18T21:40:26.082Z,43.23
2019-05-18T21:43:18.458Z,44.45
2019-05-18T21:45:24.006Z,38.58
2019-05-18T21:47:29.593Z,43.08
2019-05-18T21:49:35.148Z,43.42
2019-05-18T21:51:45.741Z,46.18
2019-05-18T21:53:51.314Z,40.92
2019-05-18T21:55:56.854Z,43.25
2019-05-18T21:58:22.079Z,45.88
2019-05-18T22:00:30.751Z,53.33
2019-05-18T22:02:53.346Z,67.47
2019-05-18T22:04:58.966Z,100.12
2019-05-18T22:07:05.728Z,114.57
2019-05-18T22:09:11.433Z,113.00
2019-05-18T22:11:17.037Z,125.82
2019-05-18T22:13:28.873Z,107.87
2019-05-18T22:15:56.065Z,94.58
2019-05-18T22:18:04.562Z,100.50
2019-05-18T22:20:10.233Z,91.65
2019-05-18T22:22:15.872Z,102.65
2019-05-18T22:24:21.414Z,90.20
2019-05-18T22:26:30.763Z,93.67
2019-05-18T22:28:36.496Z,91.53
2019-05-18T22:30:43.256Z,84.83
2019-05-18T22:32:48.800Z,91.47
2019-05-18T22:34:54.366Z,82.82
2019-05-18T22:36:59.910Z,93.58
2019-05-18T22:39:26.737Z,84.17
2019-05-18T22:41:32.432Z,87.17
2019-05-18T22:43:37.960Z,86.30
2019-05-18T22:45:43.554Z,82.70
2019-05-18T22:47:49.110Z,84.00
2019-05-18T22:49:56.230Z,76.17
2019-05-18T22:52:01.813Z,80.80
2019-05-18T22:54:07.451Z,80.83
2019-05-18T22:56:15.789Z,69.55
2019-05-18T22:58:33.364Z,74.10
2019-05-18T23:00:38.990Z,78.25
2019-05-18T23:02:46.788Z,77.65
2019-05-18T23:04:52.377Z,78.83
2019-05-18T23:06:58.027Z,73.30
2019-05-18T23:09:05.008Z,73.40
2019-05-18T23:11:10.614Z,70.42
2019-05-18T23:13:18.356Z,65.90
2019-05-18T23:15:23.962Z,71.17
2019-05-18T23:17:29.669Z,59.88
2019-05-18T23:19:35.185Z,64.62
2019-05-18T23:21:40.700Z,68.50
2019-05-18T23:23:46.237Z,64.62
2019-05-18T23:25:51.906Z,63.28
2019-05-18T23:27:57.449Z,61.68
2019-05-18T23:30:04.351Z,67.67
2019-05-18T23:32:10.166Z,58.10
2019-05-18T23:34:15.663Z,65.05
2019-05-18T23:36:21.196Z,68.20
2019-05-18T23:38:26.775Z,65.40
2019-05-18T23:40:35.437Z,62.85
2019-05-18T23:42:41.003Z,65.00
2019-05-18T23:44:48.220Z,63.90
2019-05-18T23:46:53.781Z,65.50
2019-05-18T23:49:10.086Z,65.17
2019-05-18T23:51:06.799Z,81.25
2019-05-18T23:53:12.380Z,83.33
2019-05-18T23:55:18.067Z,86.70
2019-05-18T23:57:23.630Z,85.15
2019-05-18T23:59:29.213Z,82.15
